createdAt,value
2022-11-08T00:01:52.538Z,54.96
2022-11-08T00:04:23.335Z,55.14
2022-11-08T00:07:10.658Z,55.01
2022-11-08T00:09:57.899Z,55.01
2022-11-08T00:12:47.064Z,55.02
2022-11-08T00:15:16.332Z,55.00
2022-11-08T00:17:45.031Z,55.07
2022-11-08T00:20:13.615Z,55.08
2022-11-08T00:22:43.472Z,55.08
2022-11-08T00:25:11.998Z,55.07
2022-11-08T00:27:42.963Z,55.16
2022-11-08T00:30:13.479Z,55.25
2022-11-08T00:32:41.794Z,55.20
2022-11-08T00:35:10.473Z,55.18
2022-11-08T00:37:39.305Z,55.30
2022-11-08T00:40:11.446Z,55.36
2022-11-08T00:42:39.948Z,55.34
2022-11-08T00:45:10.133Z,55.28
2022-11-08T00:47:38.701Z,55.38
2022-11-08T00:50:10.028Z,55.54
2022-11-08T00:52:39.973Z,55.66
2022-11-08T00:55:10.806Z,55.67
2022-11-08T00:57:53.912Z,55.49
2022-11-08T01:00:27.641Z,55.40
2022-11-08T01:03:10.957Z,55.44
2022-11-08T01:06:00.438Z,55.57
2022-11-08T01:08:32.693Z,55.55
2022-11-08T01:11:11.862Z,55.74
2022-11-08T01:13:45.025Z,55.90
2022-11-08T01:16:20.013Z,55.98
2022-11-08T01:18:58.182Z,56.03
2022-11-08T01:21:31.570Z,56.00
2022-11-08T01:24:08.523Z,56.07
2022-11-08T01:26:45.545Z,56.06
2022-11-08T01:29:20.561Z,55.96
2022-11-08T01:31:53.234Z,56.10
2022-11-08T01:34:27.258Z,56.13
2022-11-08T01:37:00.730Z,56.22
2022-11-08T01:39:34.189Z,56.19
2022-11-08T01:42:08.800Z,56.17
2022-11-08T01:45:01.889Z,56.18
2022-11-08T01:47:33.677Z,56.34
2022-11-08T01:50:09.713Z,56.28
2022-11-08T01:52:46.610Z,56.22
2022-11-08T01:55:23.700Z,56.16
2022-11-08T01:57:58.938Z,56.16
2022-11-08T02:00:32.896Z,56.33
2022-11-08T02:03:07.267Z,56.46
2022-11-08T02:05:40.717Z,56.51
2022-11-08T02:08:19.509Z,56.53
2022-11-08T02:10:54.736Z,56.56
2022-11-08T02:13:31.593Z,56.48
2022-11-08T02:16:10.795Z,56.57
2022-11-08T02:18:43.150Z,56.62
2022-11-08T02:21:19.930Z,56.61
2022-11-08T02:23:55.489Z,56.66
2022-11-08T02:26:30.495Z,56.58
2022-11-08T02:29:09.850Z,56.72
2022-11-08T02:31:43.569Z,56.64
2022-11-08T02:34:20.218Z,56.53
2022-11-08T02:36:52.856Z,56.65
2022-11-08T02:39:26.636Z,56.65
2022-11-08T02:41:58.707Z,56.68
2022-11-08T02:44:33.509Z,56.68
2022-11-08T02:47:07.516Z,56.66
2022-11-08T02:49:39.809Z,56.68
2022-11-08T02:52:11.921Z,56.75
2022-11-08T02:54:46.162Z,56.70
2022-11-08T02:57:18.333Z,56.71
2022-11-08T02:59:51.017Z,56.76
2022-11-08T03:02:25.766Z,56.63
2022-11-08T03:04:58.293Z,56.66
2022-11-08T03:07:30.089Z,56.68
2022-11-08T03:10:03.032Z,56.74
2022-11-08T03:12:36.385Z,56.75
2022-11-08T03:15:11.661Z,56.81
2022-11-08T03:17:44.922Z,56.82
2022-11-08T03:20:18.494Z,56.73
2022-11-08T03:22:50.719Z,56.66
2022-11-08T03:25:22.887Z,56.75
2022-11-08T03:27:55.063Z,56.70
2022-11-08T03:30:27.636Z,56.68
2022-11-08T03:33:04.124Z,56.63
2022-11-08T03:35:36.634Z,56.50
2022-11-08T03:38:11.085Z,56.55
2022-11-08T03:40:44.506Z,56.53
2022-11-08T03:43:16.820Z,56.58
2022-11-08T03:45:50.109Z,56.52
2022-11-08T03:48:24.882Z,56.48
2022-11-08T03:50:57.314Z,56.51
2022-11-08T03:53:30.354Z,56.45
2022-11-08T03:56:05.331Z,56.51
2022-11-08T03:58:38.892Z,56.70
2022-11-08T04:01:14.111Z,56.56
2022-11-08T04:03:47.936Z,56.52
2022-11-08T04:06:21.648Z,56.55
2022-11-08T04:08:55.403Z,56.47
2022-11-08T04:11:48.516Z,56.54
2022-11-08T04:14:42.331Z,56.58
2022-11-08T04:17:14.740Z,56.52
2022-11-08T04:20:06.340Z,56.44
2022-11-08T04:22:38.535Z,56.61
2022-11-08T04:25:11.823Z,56.64
2022-11-08T04:27:44.397Z,56.54
2022-11-08T04:30:16.980Z,56.62
2022-11-08T04:32:49.972Z,56.64
2022-11-08T04:35:22.002Z,56.57
2022-11-08T04:37:54.168Z,56.62
2022-11-08T04:40:26.697Z,56.58
2022-11-08T04:43:04.546Z,56.52
2022-11-08T04:45:36.731Z,56.51
2022-11-08T04:48:10.617Z,56.67
2022-11-08T04:50:45.275Z,56.73
2022-11-08T04:53:18.284Z,56.72
2022-11-08T04:55:53.353Z,56.69
2022-11-08T04:58:26.761Z,56.71
2022-11-08T05:01:03.507Z,56.59
2022-11-08T05:03:37.565Z,56.74
2022-11-08T05:06:15.076Z,56.49
2022-11-08T05:08:47.402Z,56.42
2022-11-08T05:11:22.607Z,56.43
2022-11-08T05:13:55.658Z,56.56
2022-11-08T05:16:33.046Z,56.55
2022-11-08T05:19:10.494Z,56.53
2022-11-08T05:22:04.527Z,56.55
2022-11-08T05:24:37.797Z,56.71
2022-11-08T05:27:10.068Z,56.69
2022-11-08T05:29:43.456Z,56.73
2022-11-08T05:32:17.225Z,56.85
2022-11-08T05:34:53.210Z,56.74
2022-11-08T05:37:25.056Z,56.59
2022-11-08T05:39:57.230Z,56.72
2022-11-08T05:42:29.584Z,56.88
2022-11-08T05:45:06.565Z,56.98
2022-11-08T05:47:44.673Z,57.14
2022-11-08T05:50:19.500Z,57.07
2022-11-08T05:52:57.096Z,57.13
2022-11-08T05:55:28.955Z,56.92
2022-11-08T05:58:01.539Z,57.04
2022-11-08T06:00:35.960Z,56.97
2022-11-08T06:03:09.027Z,56.78
2022-11-08T06:05:42.528Z,56.48
2022-11-08T06:08:15.305Z,56.41
2022-11-08T06:10:51.529Z,56.51
2022-11-08T06:13:24.811Z,56.45
2022-11-08T06:15:58.043Z,56.38
2022-11-08T06:18:31.371Z,56.36
2022-11-08T06:21:05.040Z,56.44
2022-11-08T06:23:37.926Z,56.52
2022-11-08T06:26:10.784Z,56.47
2022-11-08T06:28:44.347Z,56.35
2022-11-08T06:31:16.673Z,56.44
2022-11-08T06:33:51.228Z,56.51
2022-11-08T06:36:23.699Z,56.61
2022-11-08T06:38:58.716Z,56.55
2022-11-08T06:41:32.605Z,56.43
2022-11-08T06:44:05.649Z,56.72
2022-11-08T06:46:39.633Z,56.77
2022-11-08T06:49:13.218Z,56.72
2022-11-08T06:51:46.297Z,56.78
2022-11-08T06:54:53.169Z,56.88
2022-11-08T06:57:21.823Z,56.83
2022-11-08T06:59:53.181Z,57.02
2022-11-08T07:02:21.972Z,57.07
2022-11-08T07:04:52.587Z,57.16
2022-11-08T07:07:22.949Z,57.07
2022-11-08T07:09:51.442Z,57.20
2022-11-08T07:12:20.076Z,57.09
2022-11-08T07:14:49.218Z,57.09
2022-11-08T07:17:17.812Z,57.16
2022-11-08T07:19:46.169Z,57.33
2022-11-08T07:22:16.049Z,57.30
2022-11-08T07:24:48.574Z,57.30
2022-11-08T07:27:18.564Z,57.21
2022-11-08T07:29:47.503Z,57.17
2022-11-08T07:32:16.796Z,57.29
2022-11-08T07:34:46.549Z,57.24
2022-11-08T07:37:15.133Z,57.41
2022-11-08T07:39:45.385Z,57.33
2022-11-08T07:42:17.177Z,57.49
2022-11-08T07:44:46.223Z,57.62
2022-11-08T07:47:14.697Z,57.60
2022-11-08T07:49:45.552Z,57.55
2022-11-08T07:52:14.862Z,57.54
2022-11-08T07:54:44.435Z,57.31
2022-11-08T07:57:17.493Z,57.33
2022-11-08T07:59:46.675Z,57.28
2022-11-08T08:02:15.850Z,57.19
2022-11-08T08:04:47.100Z,57.33
2022-11-08T08:07:17.935Z,57.31
2022-11-08T08:09:47.827Z,57.17
2022-11-08T08:12:17.310Z,57.15
2022-11-08T08:14:46.264Z,57.06
2022-11-08T08:17:16.369Z,57.16
2022-11-08T08:19:44.750Z,57.17
2022-11-08T08:22:14.356Z,57.13
2022-11-08T08:24:44.055Z,57.04
2022-11-08T08:27:14.977Z,56.97
2022-11-08T08:29:46.248Z,56.90
2022-11-08T08:32:15.635Z,56.76
2022-11-08T08:34:44.309Z,56.62
2022-11-08T08:37:17.365Z,56.55
2022-11-08T08:39:46.959Z,56.51
2022-11-08T08:42:16.861Z,56.35
2022-11-08T08:44:46.537Z,56.13
2022-11-08T08:47:15.256Z,55.99
2022-11-08T08:49:44.109Z,55.91
2022-11-08T08:52:13.961Z,55.75
2022-11-08T08:54:43.031Z,55.73
2022-11-08T08:57:12.654Z,55.63
2022-11-08T09:02:30.466Z,55.28
2022-11-08T09:04:59.241Z,55.02
2022-11-08T09:07:28.246Z,54.85
2022-11-08T09:09:59.021Z,54.86
2022-11-08T09:12:27.593Z,54.78
2022-11-08T09:14:56.999Z,54.65
2022-11-08T09:17:27.855Z,54.49
2022-11-08T09:19:57.754Z,54.45
2022-11-08T09:22:27.111Z,54.46
2022-11-08T09:24:58.463Z,54.30
2022-11-08T09:27:29.146Z,54.21
2022-11-08T09:29:57.533Z,53.95
2022-11-08T09:32:46.324Z,53.55
2022-11-08T09:35:18.080Z,53.56
2022-11-08T09:37:49.749Z,53.66
2022-11-08T09:40:23.895Z,53.43
2022-11-08T09:43:03.465Z,53.04
2022-11-08T09:45:36.940Z,52.86
2022-11-08T09:48:07.177Z,52.92
2022-11-08T09:50:39.679Z,52.62
2022-11-08T09:53:17.988Z,52.31
2022-11-08T09:55:51.195Z,52.14
2022-11-08T09:58:24.410Z,52.04
2022-11-08T10:00:52.946Z,51.88
2022-11-08T10:03:23.151Z,51.57
2022-11-08T10:06:06.159Z,51.39
2022-11-08T10:08:41.922Z,51.25
2022-11-08T10:11:32.812Z,51.10
2022-11-08T10:14:13.810Z,50.70
2022-11-08T10:16:48.545Z,50.23
2022-11-08T10:19:36.039Z,49.55
2022-11-08T10:22:12.020Z,49.68
2022-11-08T10:24:47.865Z,49.44
2022-11-08T10:27:26.006Z,49.41
2022-11-08T10:30:00.466Z,48.86
2022-11-08T10:32:31.774Z,48.78
2022-11-08T10:35:07.333Z,48.41
2022-11-08T10:37:35.871Z,48.43
2022-11-08T10:40:18.309Z,48.44
2022-11-08T10:42:50.397Z,48.45
2022-11-08T10:45:18.944Z,48.60
2022-11-08T10:47:48.158Z,48.41
2022-11-08T10:50:19.367Z,48.35
2022-11-08T10:52:55.248Z,48.25
2022-11-08T10:55:30.378Z,48.16
2022-11-08T10:57:59.701Z,48.17
2022-11-08T11:00:31.211Z,48.11
2022-11-08T11:03:02.841Z,47.83
2022-11-08T11:05:34.129Z,47.49
2022-11-08T11:08:18.475Z,47.41
2022-11-08T11:10:49.271Z,47.19
2022-11-08T11:13:22.923Z,47.04
2022-11-08T11:15:53.562Z,46.97
2022-11-08T11:18:28.961Z,46.82
2022-11-08T11:21:09.049Z,46.85
2022-11-08T11:23:41.545Z,46.06
2022-11-08T11:26:19.350Z,46.36
2022-11-08T11:29:06.274Z,46.24
2022-11-08T11:31:36.813Z,45.97
2022-11-08T11:34:25.417Z,45.37
2022-11-08T11:36:57.232Z,45.08
2022-11-08T11:39:31.600Z,44.97
2022-11-08T11:42:24.011Z,44.66
2022-11-08T11:45:03.600Z,44.33
2022-11-08T11:47:36.053Z,44.10
2022-11-08T11:50:12.741Z,43.50
2022-11-08T11:52:42.229Z,43.52
2022-11-08T11:55:15.520Z,43.10
2022-11-08T11:57:52.162Z,42.96
2022-11-08T12:00:20.887Z,43.06
2022-11-08T12:03:06.029Z,42.61
2022-11-08T12:05:42.353Z,42.12
2022-11-08T12:08:24.768Z,41.92
2022-11-08T12:11:08.180Z,41.24
2022-11-08T12:13:53.997Z,41.25
2022-11-08T12:16:27.450Z,40.96
2022-11-08T12:19:05.583Z,40.84
2022-11-08T12:21:41.055Z,40.63
2022-11-08T12:24:21.498Z,40.05
2022-11-08T12:27:01.023Z,39.67
2022-11-08T12:29:32.629Z,39.32
2022-11-08T12:32:51.816Z,39.37
2022-11-08T12:35:31.911Z,39.15
2022-11-08T12:38:14.671Z,38.38
2022-11-08T12:40:51.594Z,38.05
2022-11-08T12:43:40.382Z,38.65
2022-11-08T12:46:12.427Z,38.35
2022-11-08T12:49:10.576Z,38.12
2022-11-08T12:51:51.883Z,38.02
2022-11-08T12:54:27.038Z,37.70
2022-11-08T12:56:58.204Z,37.93
2022-11-08T12:59:31.160Z,37.66
2022-11-08T13:02:02.461Z,37.70
2022-11-08T13:04:50.608Z,37.45
2022-11-08T13:07:26.871Z,37.18
2022-11-08T13:10:03.584Z,37.11
2022-11-08T13:12:40.365Z,37.18
2022-11-08T13:15:17.554Z,37.07
2022-11-08T13:18:17.928Z,36.98
2022-11-08T13:20:47.798Z,37.09
2022-11-08T13:23:20.929Z,37.25
2022-11-08T13:25:49.606Z,37.39
2022-11-08T13:28:38.744Z,37.70
2022-11-08T13:31:18.781Z,37.62
2022-11-08T13:33:56.192Z,37.29
2022-11-08T13:36:33.246Z,37.44
2022-11-08T13:39:30.308Z,37.32
2022-11-08T13:42:04.378Z,37.39
2022-11-08T13:44:58.207Z,37.66
2022-11-08T13:47:57.278Z,37.73
2022-11-08T13:51:00.891Z,37.99
2022-11-08T13:53:57.130Z,38.30
2022-11-08T13:56:41.651Z,38.36
2022-11-08T13:59:53.378Z,38.51
2022-11-08T14:02:34.883Z,38.90
2022-11-08T14:05:27.658Z,39.01
2022-11-08T14:08:20.243Z,39.20
2022-11-08T14:11:25.023Z,39.40
2022-11-08T14:14:33.337Z,39.46
2022-11-08T14:17:09.463Z,39.62
2022-11-08T14:19:39.561Z,39.75
2022-11-08T14:22:14.338Z,39.88
2022-11-08T14:24:43.144Z,40.07
2022-11-08T14:27:13.660Z,40.18
2022-11-08T14:29:42.142Z,40.37
2022-11-08T14:32:18.481Z,40.49
2022-11-08T14:34:47.081Z,40.61
2022-11-08T14:37:20.944Z,40.74
2022-11-08T14:39:49.430Z,40.77
2022-11-08T14:42:21.997Z,40.89
2022-11-08T14:44:53.036Z,40.99
2022-11-08T14:47:25.868Z,41.10
2022-11-08T14:49:54.676Z,41.24
2022-11-08T14:52:27.671Z,41.26
2022-11-08T14:55:03.354Z,41.41
2022-11-08T14:57:33.779Z,41.43
2022-11-08T15:00:06.378Z,41.56
2022-11-08T15:02:36.515Z,41.56
2022-11-08T15:05:27.110Z,41.63
2022-11-08T15:07:55.691Z,41.74
2022-11-08T15:10:24.221Z,41.83
2022-11-08T15:12:53.017Z,41.93
2022-11-08T15:15:24.033Z,42.14
2022-11-08T15:18:11.631Z,42.25
2022-11-08T15:20:40.709Z,42.69
2022-11-08T15:23:30.813Z,42.94
2022-11-08T15:26:00.339Z,43.13
2022-11-08T15:28:33.270Z,43.30
2022-11-08T15:31:03.370Z,43.41
2022-11-08T15:33:35.969Z,43.55
2022-11-08T15:36:11.918Z,43.54
2022-11-08T15:38:40.991Z,43.62
2022-11-08T15:41:30.611Z,43.47
2022-11-08T15:44:14.081Z,43.48
2022-11-08T15:46:42.790Z,43.66
2022-11-08T15:49:16.444Z,43.76
2022-11-08T15:51:44.853Z,43.76
2022-11-08T15:54:13.227Z,43.91
2022-11-08T15:56:42.058Z,44.05
2022-11-08T15:59:18.599Z,44.23
2022-11-08T16:01:54.759Z,44.37
2022-11-08T16:04:23.324Z,44.52
2022-11-08T16:06:52.015Z,44.49
2022-11-08T16:09:20.517Z,44.57
2022-11-08T16:11:49.190Z,44.71
2022-11-08T16:14:19.736Z,44.79
2022-11-08T16:16:48.196Z,44.88
2022-11-08T16:19:20.875Z,45.00
2022-11-08T16:21:50.357Z,45.16
2022-11-08T16:24:19.231Z,45.32
2022-11-08T16:26:48.779Z,45.46
2022-11-08T16:29:20.102Z,45.60
2022-11-08T16:31:51.555Z,45.81
2022-11-08T16:34:20.158Z,45.94
2022-11-08T16:36:49.693Z,46.06
2022-11-08T16:39:19.364Z,46.19
2022-11-08T16:41:48.091Z,46.24
2022-11-08T16:44:17.464Z,46.37
2022-11-08T16:46:45.926Z,46.46
2022-11-08T16:49:20.794Z,46.94
2022-11-08T16:51:49.482Z,47.16
2022-11-08T16:54:19.606Z,47.14
2022-11-08T16:56:47.951Z,47.24
2022-11-08T16:59:16.381Z,47.37
2022-11-08T17:01:44.859Z,47.39
2022-11-08T17:04:13.397Z,47.54
2022-11-08T17:06:41.991Z,47.56
2022-11-08T17:09:10.355Z,47.59
2022-11-08T17:11:39.323Z,47.79
2022-11-08T17:14:09.377Z,47.89
2022-11-08T17:16:37.989Z,47.90
2022-11-08T17:19:06.442Z,47.93
2022-11-08T17:21:50.332Z,47.67
2022-11-08T17:24:22.040Z,47.67
2022-11-08T17:26:51.056Z,47.68
2022-11-08T17:29:19.852Z,47.81
2022-11-08T17:31:48.748Z,47.84
2022-11-08T17:34:17.262Z,47.91
2022-11-08T17:36:45.786Z,47.97
2022-11-08T17:39:14.632Z,48.01
2022-11-08T17:41:43.192Z,48.16
2022-11-08T17:44:12.537Z,48.13
2022-11-08T17:46:40.936Z,47.93
2022-11-08T17:49:10.079Z,48.04
2022-11-08T17:51:38.514Z,48.47
2022-11-08T17:54:14.418Z,48.69
2022-11-08T17:56:44.196Z,48.52
2022-11-08T17:59:12.784Z,48.22
2022-11-08T18:01:41.329Z,48.19
2022-11-08T18:04:11.122Z,48.21
2022-11-08T18:06:39.625Z,48.25
2022-11-08T18:09:09.770Z,48.33
2022-11-08T18:11:39.249Z,48.37
2022-11-08T18:14:09.177Z,48.44
2022-11-08T18:16:37.645Z,48.47
2022-11-08T18:19:06.121Z,48.57
2022-11-08T18:21:34.631Z,48.58
2022-11-08T18:24:04.517Z,48.70
2022-11-08T18:26:33.237Z,48.84
2022-11-08T18:29:04.217Z,48.91
2022-11-08T18:31:32.813Z,48.84
2022-11-08T18:34:01.934Z,48.84
2022-11-08T18:36:31.289Z,48.99
2022-11-08T18:39:01.960Z,49.01
2022-11-08T18:41:33.328Z,49.12
2022-11-08T18:44:03.059Z,49.19
2022-11-08T18:46:36.538Z,49.36
2022-11-08T18:49:08.033Z,49.36
2022-11-08T18:51:37.078Z,49.36
2022-11-08T18:54:05.703Z,49.44
2022-11-08T18:56:34.295Z,49.50
2022-11-08T18:59:03.740Z,49.90
2022-11-08T19:01:32.394Z,49.77
2022-11-08T19:04:01.044Z,49.85
2022-11-08T19:06:30.005Z,50.15
2022-11-08T19:08:58.561Z,50.53
2022-11-08T19:11:30.690Z,50.63
2022-11-08T19:14:02.796Z,50.72
2022-11-08T19:16:32.664Z,50.68
2022-11-08T19:19:04.629Z,50.70
2022-11-08T19:21:37.860Z,50.65
2022-11-08T19:24:10.426Z,50.76
2022-11-08T19:26:40.665Z,50.96
2022-11-08T19:29:11.661Z,51.03
2022-11-08T19:31:46.744Z,51.18
2022-11-08T19:34:16.687Z,51.23
2022-11-08T19:36:52.683Z,51.18
2022-11-08T19:39:25.395Z,51.27
2022-11-08T19:41:56.718Z,51.39
2022-11-08T19:44:28.031Z,51.40
2022-11-08T19:47:01.963Z,51.36
2022-11-08T19:49:31.772Z,51.54
2022-11-08T19:52:01.808Z,51.68
2022-11-08T19:54:33.745Z,51.50
2022-11-08T19:57:06.456Z,51.59
2022-11-08T19:59:45.455Z,51.67
2022-11-08T20:02:22.169Z,51.76
2022-11-08T20:04:52.002Z,51.73
2022-11-08T20:07:28.023Z,51.75
2022-11-08T20:09:58.692Z,51.76
2022-11-08T20:19:50.019Z,52.11
2022-11-08T20:22:22.374Z,52.36
2022-11-08T20:24:54.274Z,52.34
2022-11-08T20:27:27.987Z,52.40
2022-11-08T20:30:00.477Z,52.42
2022-11-08T20:32:33.712Z,52.48
2022-11-08T20:35:06.228Z,52.52
2022-11-08T20:37:44.397Z,52.61
2022-11-08T20:40:16.537Z,52.75
2022-11-08T20:42:50.406Z,52.86
2022-11-08T20:45:23.443Z,52.93
2022-11-08T20:47:55.348Z,53.02
2022-11-08T20:50:28.084Z,53.07
2022-11-08T20:53:00.759Z,52.97
2022-11-08T20:55:33.436Z,53.37
2022-11-08T20:58:07.893Z,53.74
2022-11-08T21:00:57.980Z,53.62
2022-11-08T21:03:36.161Z,53.79
2022-11-08T21:06:10.145Z,53.90
2022-11-08T21:09:03.316Z,54.09
2022-11-08T21:11:37.395Z,54.14
2022-11-08T21:14:10.052Z,53.63
2022-11-08T21:17:14.673Z,53.53
2022-11-08T21:19:35.558Z,53.54
2022-11-08T21:22:19.802Z,53.57
2022-11-08T21:24:52.826Z,53.65
2022-11-08T21:27:29.612Z,53.72
2022-11-08T21:30:03.384Z,53.73
2022-11-08T21:32:37.955Z,53.84
2022-11-08T21:35:11.064Z,53.86
2022-11-08T21:37:43.154Z,53.91
2022-11-08T21:40:16.365Z,54.05
2022-11-08T21:42:50.191Z,54.01
2022-11-08T21:45:22.919Z,54.07
2022-11-08T21:47:56.623Z,54.12
2022-11-08T21:50:30.070Z,54.19
2022-11-08T21:53:04.044Z,54.61
2022-11-08T21:55:36.628Z,55.03
2022-11-08T21:58:09.466Z,55.03
2022-11-08T22:00:42.295Z,54.74
2022-11-08T22:03:15.583Z,54.67
2022-11-08T22:05:49.105Z,54.74
2022-11-08T22:08:22.341Z,54.81
2022-11-08T22:10:55.496Z,55.01
2022-11-08T22:13:29.784Z,54.96
2022-11-08T22:16:02.567Z,55.05
2022-11-08T22:21:41.700Z,55.18
2022-11-08T22:24:17.206Z,55.22
2022-11-08T22:26:53.799Z,55.30
2022-11-08T22:29:26.518Z,55.38
2022-11-08T22:31:59.452Z,55.37
2022-11-08T22:34:33.473Z,55.47
2022-11-08T22:37:06.666Z,55.55
2022-11-08T22:39:40.056Z,55.60
2022-11-08T22:42:12.162Z,55.71
2022-11-08T22:44:46.972Z,55.75
2022-11-08T22:47:20.062Z,55.89
2022-11-08T22:49:52.521Z,55.95
2022-11-08T22:52:25.070Z,56.10
2022-11-08T22:55:01.204Z,56.15
2022-11-08T23:04:53.571Z,56.34
2022-11-08T23:07:25.869Z,56.45
2022-11-08T23:09:58.190Z,56.40
2022-11-08T23:12:48.517Z,56.40
2022-11-08T23:15:50.449Z,56.45
2022-11-08T23:18:23.867Z,56.50
2022-11-08T23:21:32.861Z,56.41
2022-11-08T23:24:22.178Z,56.51
2022-11-08T23:27:12.180Z,56.58
2022-11-08T23:30:02.569Z,56.69
2022-11-08T23:32:42.310Z,56.89
2022-11-08T23:35:17.486Z,56.90
2022-11-08T23:37:50.284Z,56.95
2022-11-08T23:40:50.601Z,57.10
2022-11-08T23:43:42.093Z,57.37
2022-11-08T23:46:15.858Z,57.86
2022-11-08T23:48:47.798Z,57.43
2022-11-08T23:51:20.352Z,57.09
2022-11-08T23:53:53.760Z,57.13
2022-11-08T23:56:29.131Z,57.09
2022-11-08T23:59:04.186Z,57.10
